createdAt,value
2022-12-18T00:01:22.408Z,99491.41
2022-12-18T00:03:49.150Z,99489.31
2022-12-18T00:06:16.642Z,99486.81
2022-12-18T00:08:44.303Z,99478.81
2022-12-18T00:11:20.094Z,99475.66
2022-12-18T00:13:47.213Z,99496.16
2022-12-18T00:16:16.551Z,99494.22
2022-12-18T00:18:43.641Z,99486.19
2022-12-18T00:21:12.433Z,99475.09
2022-12-18T00:23:40.620Z,99477.31
2022-12-18T00:26:15.939Z,99472.31
2022-12-18T00:28:43.401Z,99466.91
2022-12-18T00:31:15.604Z,99471.50
2022-12-18T00:33:42.426Z,99470.94
2022-12-18T00:36:15.434Z,99478.97
2022-12-18T00:38:42.599Z,99496.19
2022-12-18T00:41:11.153Z,99485.91
2022-12-18T00:43:39.566Z,99501.63
2022-12-18T00:46:06.694Z,99494.66
2022-12-18T00:48:33.745Z,99493.56
2022-12-18T00:51:00.259Z,99487.03
2022-12-18T00:53:26.868Z,99492.84
2022-12-18T00:55:53.317Z,99489.53
2022-12-18T00:58:19.877Z,99492.31
2022-12-18T01:00:46.446Z,99494.00
2022-12-18T01:03:16.270Z,99498.13
2022-12-18T01:05:43.554Z,99499.66
2022-12-18T01:08:10.498Z,99501.88
2022-12-18T01:10:37.054Z,99499.66
2022-12-18T01:13:03.586Z,99503.94
2022-12-18T01:15:30.089Z,99505.19
2022-12-18T01:17:56.660Z,99506.31
2022-12-18T01:20:23.198Z,99518.78
2022-12-18T01:22:49.705Z,99515.84
2022-12-18T01:25:16.345Z,99523.03
2022-12-18T01:27:42.828Z,99528.56
2022-12-18T01:30:09.769Z,99535.22
2022-12-18T01:32:36.296Z,99526.22
2022-12-18T01:35:03.153Z,99531.47
2022-12-18T01:37:29.812Z,99532.91
2022-12-18T01:39:56.522Z,99528.31
2022-12-18T01:42:23.060Z,99534.38
2022-12-18T01:45:00.249Z,99541.91
2022-12-18T01:47:45.575Z,99549.09
2022-12-18T01:50:28.119Z,99549.63
2022-12-18T01:53:03.862Z,99537.13
2022-12-18T01:55:36.109Z,99549.16
2022-12-18T01:58:03.167Z,99540.97
2022-12-18T02:00:30.889Z,99550.97
2022-12-18T02:02:57.803Z,99549.13
2022-12-18T02:05:50.313Z,99552.50
2022-12-18T02:08:34.906Z,99556.88
2022-12-18T02:11:11.919Z,99550.75
2022-12-18T02:13:54.566Z,99551.19
2022-12-18T02:16:36.389Z,99545.75
2022-12-18T02:19:16.517Z,99542.72
2022-12-18T02:21:52.248Z,99544.66
2022-12-18T02:24:30.563Z,99543.91
2022-12-18T02:27:07.579Z,99532.50
2022-12-18T02:29:39.997Z,99544.53
2022-12-18T02:32:11.442Z,99540.22
2022-12-18T02:34:39.999Z,99548.75
2022-12-18T02:37:17.116Z,99548.63
2022-12-18T02:39:47.140Z,99548.44
2022-12-18T02:42:14.598Z,99560.63
2022-12-18T02:44:47.081Z,99565.16
2022-12-18T02:47:15.813Z,99550.09
2022-12-18T02:50:08.743Z,99562.06
2022-12-18T02:52:49.232Z,99558.66
2022-12-18T02:55:49.843Z,99553.19
2022-12-18T02:58:31.555Z,99550.31
2022-12-18T03:01:24.226Z,99550.41
2022-12-18T03:03:58.797Z,99562.50
2022-12-18T03:06:31.060Z,99558.41
2022-12-18T03:09:02.089Z,99563.28
2022-12-18T03:11:52.572Z,99560.28
2022-12-18T03:14:21.704Z,99562.41
2022-12-18T03:16:53.546Z,99573.03
2022-12-18T03:19:24.960Z,99570.06
2022-12-18T03:21:55.548Z,99563.78
2022-12-18T03:24:23.786Z,99565.22
2022-12-18T03:26:55.751Z,99563.59
2022-12-18T03:29:39.150Z,99565.59
2022-12-18T03:32:11.534Z,99560.78
2022-12-18T03:34:41.429Z,99564.03
2022-12-18T03:37:08.468Z,99559.97
2022-12-18T03:39:36.232Z,99561.88
2022-12-18T03:42:05.702Z,99561.88
2022-12-18T03:44:59.796Z,99560.97
2022-12-18T03:47:46.838Z,99564.28
2022-12-18T03:50:19.356Z,99568.38
2022-12-18T03:53:07.057Z,99568.66
2022-12-18T03:55:36.352Z,99562.00
2022-12-18T03:58:07.240Z,99560.94
2022-12-18T04:00:35.655Z,99564.84
2022-12-18T04:03:04.836Z,99563.66
2022-12-18T04:05:33.155Z,99561.34
2022-12-18T04:07:59.997Z,99563.16
2022-12-18T04:10:26.573Z,99568.16
2022-12-18T04:12:57.545Z,99565.94
2022-12-18T04:15:24.958Z,99569.13
2022-12-18T04:17:51.640Z,99575.59
2022-12-18T04:20:18.797Z,99568.31
2022-12-18T04:22:45.498Z,99569.84
2022-12-18T04:25:13.138Z,99577.03
2022-12-18T04:27:39.896Z,99574.88
2022-12-18T04:30:07.125Z,99584.69
2022-12-18T04:32:35.013Z,99577.50
2022-12-18T04:35:01.574Z,99581.78
2022-12-18T04:37:28.014Z,99583.41
2022-12-18T04:39:54.622Z,99580.63
2022-12-18T04:42:21.090Z,99578.16
2022-12-18T04:44:47.681Z,99577.06
2022-12-18T04:47:14.162Z,99576.34
2022-12-18T04:49:40.728Z,99580.16
2022-12-18T04:52:07.800Z,99574.44
2022-12-18T04:54:34.272Z,99575.47
2022-12-18T04:57:00.726Z,99582.19
2022-12-18T04:59:27.286Z,99580.88
2022-12-18T05:01:54.107Z,99577.41
2022-12-18T05:04:20.729Z,99575.03
2022-12-18T05:06:47.285Z,99570.13
2022-12-18T05:09:14.720Z,99576.69
2022-12-18T05:11:41.305Z,99573.72
2022-12-18T05:14:07.750Z,99571.34
2022-12-18T05:16:34.875Z,99576.13
2022-12-18T05:19:01.367Z,99566.34
2022-12-18T05:21:27.775Z,99573.63
2022-12-18T05:23:54.234Z,99571.09
2022-12-18T05:26:20.775Z,99567.16
2022-12-18T05:28:47.252Z,99571.59
2022-12-18T05:31:14.395Z,99565.75
2022-12-18T05:33:41.436Z,99572.41
2022-12-18T05:36:09.722Z,99570.41
2022-12-18T05:38:38.208Z,99582.56
2022-12-18T05:41:05.568Z,99568.84
2022-12-18T05:43:34.398Z,99578.03
2022-12-18T05:46:05.309Z,99571.34
2022-12-18T05:48:31.804Z,99567.16
2022-12-18T05:51:05.894Z,99576.38
2022-12-18T05:53:32.523Z,99575.41
2022-12-18T05:56:02.499Z,99580.06
2022-12-18T05:58:29.013Z,99579.69
2022-12-18T06:00:55.521Z,99580.78
2022-12-18T06:03:22.011Z,99587.78
2022-12-18T06:05:48.770Z,99590.44
2022-12-18T06:08:15.277Z,99590.91
2022-12-18T06:10:42.353Z,99590.91
2022-12-18T06:13:09.000Z,99592.59
2022-12-18T06:15:38.568Z,99602.84
2022-12-18T06:18:05.237Z,99609.28
2022-12-18T06:20:33.596Z,99609.84
2022-12-18T06:23:00.977Z,99604.38
2022-12-18T06:25:27.448Z,99610.22
2022-12-18T06:27:53.972Z,99612.94
2022-12-18T06:30:20.789Z,99613.19
2022-12-18T06:32:54.705Z,99614.28
2022-12-18T06:35:23.018Z,99620.34
2022-12-18T06:37:49.522Z,99618.09
2022-12-18T06:40:15.949Z,99615.22
2022-12-18T06:42:42.374Z,99620.72
2022-12-18T06:45:09.463Z,99621.91
2022-12-18T06:47:35.932Z,99625.00
2022-12-18T06:50:02.401Z,99629.53
2022-12-18T06:52:28.877Z,99636.44
2022-12-18T06:54:55.323Z,99627.63
2022-12-18T06:57:22.032Z,99643.13
2022-12-18T06:59:48.480Z,99644.09
2022-12-18T07:02:15.507Z,99641.47
2022-12-18T07:04:42.038Z,99636.44
2022-12-18T07:07:08.537Z,99650.53
2022-12-18T07:09:35.004Z,99650.28
2022-12-18T07:12:01.466Z,99651.59
2022-12-18T07:14:27.929Z,99658.53
2022-12-18T07:16:54.621Z,99661.97
2022-12-18T07:19:21.293Z,99660.56
2022-12-18T07:21:47.726Z,99663.41
2022-12-18T07:24:14.200Z,99667.09
2022-12-18T07:26:40.692Z,99667.19
2022-12-18T07:29:07.115Z,99679.13
2022-12-18T07:31:33.544Z,99681.91
2022-12-18T07:34:00.047Z,99696.16
2022-12-18T07:36:26.556Z,99690.34
2022-12-18T07:38:53.888Z,99699.66
2022-12-18T07:41:21.045Z,99708.41
2022-12-18T07:43:48.007Z,99711.53
2022-12-18T07:46:16.033Z,99708.38
2022-12-18T07:48:49.917Z,99720.06
2022-12-18T07:51:17.957Z,99724.66
2022-12-18T07:53:45.226Z,99730.16
2022-12-18T07:56:30.467Z,99743.56
2022-12-18T07:58:58.711Z,99744.06
2022-12-18T08:01:25.558Z,99750.75
2022-12-18T08:03:52.728Z,99759.00
2022-12-18T08:06:22.504Z,99756.59
2022-12-18T08:08:52.617Z,99763.63
2022-12-18T08:11:19.078Z,99758.88
2022-12-18T08:13:46.209Z,99760.56
2022-12-18T08:16:12.860Z,99764.28
2022-12-18T08:18:39.373Z,99772.72
2022-12-18T08:21:13.654Z,99779.06
2022-12-18T08:23:42.983Z,99764.75
2022-12-18T08:26:11.030Z,99757.81
2022-12-18T08:28:37.573Z,99756.88
2022-12-18T08:31:05.036Z,99761.50
2022-12-18T08:33:31.785Z,99752.66
2022-12-18T08:36:00.383Z,99751.47
2022-12-18T08:38:26.920Z,99745.38
2022-12-18T08:41:25.668Z,99737.13
2022-12-18T08:44:10.931Z,99734.25
2022-12-18T08:46:40.845Z,99730.66
2022-12-18T08:49:08.765Z,99714.06
2022-12-18T08:51:36.602Z,99696.88
2022-12-18T08:54:04.130Z,99686.47
2022-12-18T08:56:33.001Z,99685.50
2022-12-18T08:58:59.612Z,99691.69
2022-12-18T09:01:26.395Z,99686.97
2022-12-18T09:03:53.006Z,99672.81
2022-12-18T09:06:21.806Z,99687.81
2022-12-18T09:08:48.383Z,99689.53
2022-12-18T09:11:19.915Z,99678.06
2022-12-18T09:13:46.340Z,99677.50
2022-12-18T09:16:12.926Z,99672.56
2022-12-18T09:18:39.699Z,99673.44
2022-12-18T09:21:14.716Z,99664.34
2022-12-18T09:23:41.899Z,99666.38
2022-12-18T09:26:08.864Z,99665.72
2022-12-18T09:28:35.615Z,99661.81
2022-12-18T09:31:08.258Z,99660.03
2022-12-18T09:33:38.170Z,99664.88
2022-12-18T09:36:07.716Z,99684.63
2022-12-18T09:38:35.803Z,99670.63
2022-12-18T09:41:38.061Z,99677.25
2022-12-18T09:44:29.918Z,99695.25
2022-12-18T09:47:08.589Z,99683.44
2022-12-18T09:49:42.169Z,99681.13
2022-12-18T09:52:24.716Z,99678.31
2022-12-18T09:54:58.911Z,99689.25
2022-12-18T09:57:26.637Z,99702.50
2022-12-18T09:59:57.754Z,99695.97
2022-12-18T10:02:27.382Z,99687.44
2022-12-18T10:05:05.179Z,99685.47
2022-12-18T10:07:48.592Z,99683.25
2022-12-18T10:10:28.053Z,99665.16
2022-12-18T10:13:32.059Z,99666.53
2022-12-18T10:16:25.027Z,99672.25
2022-12-18T10:19:00.569Z,99663.69
2022-12-18T10:21:39.518Z,99661.59
2022-12-18T10:24:12.113Z,99657.31
2022-12-18T10:26:38.675Z,99656.97
2022-12-18T10:29:13.080Z,99650.28
2022-12-18T10:31:39.778Z,99651.34
2022-12-18T10:34:13.267Z,99649.75
2022-12-18T10:36:40.127Z,99654.09
2022-12-18T10:39:23.691Z,99650.91
2022-12-18T10:41:50.177Z,99642.56
2022-12-18T10:44:22.471Z,99641.38
2022-12-18T10:46:57.149Z,99634.38
2022-12-18T10:49:27.950Z,99643.25
2022-12-18T10:52:23.890Z,99634.41
2022-12-18T10:54:53.998Z,99623.44
2022-12-18T10:57:41.465Z,99634.44
2022-12-18T11:00:31.308Z,99637.69
2022-12-18T11:02:58.595Z,99627.16
2022-12-18T11:05:30.291Z,99625.09
2022-12-18T11:07:57.525Z,99627.50
2022-12-18T11:10:31.138Z,99633.44
2022-12-18T11:13:11.101Z,99629.09
2022-12-18T11:15:38.051Z,99629.78
2022-12-18T11:18:04.956Z,99625.84
2022-12-18T11:20:37.020Z,99620.47
2022-12-18T11:23:14.010Z,99612.88
2022-12-18T11:25:42.800Z,99608.59
2022-12-18T11:28:39.217Z,99598.47
2022-12-18T11:31:28.775Z,99614.91
2022-12-18T11:34:31.796Z,99604.28
2022-12-18T11:36:49.619Z,99607.59
2022-12-18T11:39:25.240Z,99598.94
2022-12-18T11:42:12.804Z,99595.63
2022-12-18T11:44:59.207Z,99594.00
2022-12-18T11:48:02.492Z,99595.97
2022-12-18T11:50:43.734Z,99594.00
2022-12-18T11:53:12.314Z,99600.63
2022-12-18T11:56:17.660Z,99588.00
2022-12-18T11:58:54.193Z,99577.06
2022-12-18T12:01:43.576Z,99575.75
2022-12-18T12:04:29.543Z,99585.88
2022-12-18T12:07:05.121Z,99569.94
2022-12-18T12:09:50.081Z,99580.38
2022-12-18T12:12:52.723Z,99573.91
2022-12-18T12:15:22.031Z,99569.44
2022-12-18T12:18:03.869Z,99567.78
2022-12-18T12:20:53.608Z,99559.50
2022-12-18T12:23:41.333Z,99557.84
2022-12-18T12:26:32.786Z,99566.44
2022-12-18T12:29:21.129Z,99546.53
2022-12-18T12:32:12.762Z,99539.91
2022-12-18T12:35:15.493Z,99536.94
2022-12-18T12:38:00.348Z,99532.91
2022-12-18T12:43:26.697Z,99530.78
2022-12-18T12:46:10.899Z,99528.63
2022-12-18T12:48:47.750Z,99536.53
2022-12-18T12:51:29.122Z,99549.31
2022-12-18T12:53:58.059Z,99537.22
2022-12-18T12:56:31.861Z,99549.31
2022-12-18T12:59:14.760Z,99547.78
2022-12-18T13:02:24.021Z,99552.16
2022-12-18T13:05:14.622Z,99541.50
2022-12-18T13:07:54.178Z,99544.78
2022-12-18T13:10:32.209Z,99546.63
2022-12-18T13:13:05.387Z,99549.31
2022-12-18T13:15:46.200Z,99542.84
2022-12-18T13:18:25.094Z,99545.81
2022-12-18T13:21:12.237Z,99550.66
2022-12-18T13:23:40.791Z,99564.25
2022-12-18T13:26:07.673Z,99558.72
2022-12-18T13:28:37.090Z,99563.09
2022-12-18T13:31:04.571Z,99552.47
2022-12-18T13:33:31.090Z,99568.34
2022-12-18T13:36:28.300Z,99548.44
2022-12-18T13:39:11.775Z,99555.13
2022-12-18T13:41:38.920Z,99553.66
2022-12-18T13:44:18.356Z,99552.13
2022-12-18T13:46:47.253Z,99555.13
2022-12-18T13:49:14.089Z,99542.94
2022-12-18T13:51:43.520Z,99550.56
2022-12-18T13:54:33.464Z,99544.78
2022-12-18T13:57:00.019Z,99542.66
2022-12-18T13:59:47.634Z,99535.69
2022-12-18T14:02:17.828Z,99548.41
2022-12-18T14:04:48.526Z,99537.19
2022-12-18T14:07:18.256Z,99535.38
2022-12-18T14:09:55.632Z,99545.56
2022-12-18T14:12:50.899Z,99529.00
2022-12-18T14:15:34.752Z,99524.03
2022-12-18T14:18:18.559Z,99518.94
2022-12-18T14:20:50.756Z,99528.63
2022-12-18T14:23:33.244Z,99519.19
2022-12-18T14:26:05.503Z,99527.25
2022-12-18T14:28:33.036Z,99519.38
2022-12-18T14:30:59.779Z,99526.84
2022-12-18T14:33:28.540Z,99516.66
2022-12-18T14:36:03.792Z,99519.69
2022-12-18T14:38:35.724Z,99516.47
2022-12-18T14:41:22.550Z,99514.19
2022-12-18T14:43:51.569Z,99518.72
2022-12-18T14:46:31.040Z,99519.41
2022-12-18T14:48:58.447Z,99520.41
2022-12-18T14:51:30.648Z,99519.28
2022-12-18T14:54:09.162Z,99525.09
2022-12-18T14:56:37.961Z,99534.31
2022-12-18T14:59:22.342Z,99522.59
2022-12-18T15:02:00.729Z,99526.94
2022-12-18T15:04:35.639Z,99524.03
2022-12-18T15:07:20.744Z,99533.47
2022-12-18T15:10:02.610Z,99541.53
2022-12-18T15:12:49.226Z,99540.50
2022-12-18T15:15:33.721Z,99533.84
2022-12-18T15:18:07.733Z,99539.06
2022-12-18T15:20:41.828Z,99541.13
2022-12-18T15:23:28.711Z,99551.69
2022-12-18T15:26:02.487Z,99547.38
2022-12-18T15:28:28.980Z,99570.03
2022-12-18T15:31:07.425Z,99553.94
2022-12-18T15:33:39.719Z,99565.34
2022-12-18T15:36:11.983Z,99562.31
2022-12-18T15:38:38.616Z,99561.06
2022-12-18T15:41:08.895Z,99575.19
2022-12-18T15:43:39.362Z,99574.06
2022-12-18T15:46:16.520Z,99583.78
2022-12-18T15:48:50.158Z,99565.44
2022-12-18T15:51:21.216Z,99580.84
2022-12-18T15:53:49.677Z,99584.75
2022-12-18T15:56:35.889Z,99586.59
2022-12-18T15:59:03.413Z,99583.94
2022-12-18T16:01:32.257Z,99582.41
2022-12-18T16:03:58.916Z,99576.09
2022-12-18T16:06:25.743Z,99577.34
2022-12-18T16:08:52.233Z,99575.38
2022-12-18T16:11:39.135Z,99565.56
2022-12-18T16:14:27.573Z,99566.69
2022-12-18T16:16:56.261Z,99563.22
2022-12-18T16:19:23.582Z,99560.97
2022-12-18T16:21:52.134Z,99559.22
2022-12-18T16:24:22.910Z,99567.28
2022-12-18T16:26:52.261Z,99566.84
2022-12-18T16:29:19.829Z,99558.53
2022-12-18T16:31:47.642Z,99569.19
2022-12-18T16:34:26.740Z,99565.13
2022-12-18T16:37:05.758Z,99555.25
2022-12-18T16:39:35.085Z,99567.47
2022-12-18T16:42:15.558Z,99552.00
2022-12-18T16:44:42.406Z,99554.34
2022-12-18T16:47:09.662Z,99553.47
2022-12-18T16:49:37.915Z,99554.84
2022-12-18T16:52:06.357Z,99547.91
2022-12-18T16:54:35.076Z,99555.91
2022-12-18T16:57:01.610Z,99553.56
2022-12-18T16:59:29.210Z,99558.47
2022-12-18T17:01:57.468Z,99559.13
2022-12-18T17:04:24.186Z,99558.84
2022-12-18T17:06:52.164Z,99561.69
2022-12-18T17:09:23.782Z,99569.41
2022-12-18T17:11:50.258Z,99567.47
2022-12-18T17:14:19.764Z,99553.25
2022-12-18T17:16:47.180Z,99568.06
2022-12-18T17:19:17.466Z,99564.28
2022-12-18T17:21:45.660Z,99570.78
2022-12-18T17:24:12.253Z,99554.06
2022-12-18T17:26:38.934Z,99550.38
2022-12-18T17:29:05.638Z,99549.16
2022-12-18T17:31:33.240Z,99550.56
2022-12-18T17:34:02.999Z,99546.13
2022-12-18T17:36:31.145Z,99549.94
2022-12-18T17:39:00.036Z,99559.75
2022-12-18T17:41:28.088Z,99555.28
2022-12-18T17:43:59.706Z,99553.50
2022-12-18T17:46:27.637Z,99561.47
2022-12-18T17:49:01.497Z,99551.13
2022-12-18T17:51:28.987Z,99538.28
2022-12-18T17:53:55.497Z,99532.25
2022-12-18T17:56:23.980Z,99533.47
2022-12-18T17:58:50.950Z,99537.38
2022-12-18T18:01:23.585Z,99533.59
2022-12-18T18:03:53.751Z,99533.91
2022-12-18T18:06:20.932Z,99534.59
2022-12-18T18:08:48.010Z,99534.22
2022-12-18T18:11:36.293Z,99530.28
2022-12-18T18:14:06.201Z,99527.81
2022-12-18T18:16:38.271Z,99553.69
2022-12-18T18:19:13.960Z,99541.16
2022-12-18T18:21:42.960Z,99541.69
2022-12-18T18:24:11.377Z,99552.09
2022-12-18T18:26:38.653Z,99559.56
2022-12-18T18:29:07.183Z,99563.50
2022-12-18T18:31:40.340Z,99570.78
2022-12-18T18:34:08.094Z,99555.75
2022-12-18T18:36:34.712Z,99558.69
2022-12-18T18:39:01.906Z,99560.34
2022-12-18T18:41:29.969Z,99553.16
2022-12-18T18:43:58.025Z,99562.34
2022-12-18T18:46:25.114Z,99558.97
2022-12-18T18:48:51.981Z,99563.66
2022-12-18T18:51:21.693Z,99556.69
2022-12-18T18:53:50.376Z,99562.28
2022-12-18T18:56:50.196Z,99548.47
2022-12-18T18:59:06.363Z,99551.47
2022-12-18T19:01:33.138Z,99550.06
2022-12-18T19:04:01.070Z,99553.69
2022-12-18T19:06:28.541Z,99544.38
2022-12-18T19:08:57.212Z,99552.47
2022-12-18T19:11:44.228Z,99561.75
2022-12-18T19:14:12.892Z,99554.59
2022-12-18T19:16:39.825Z,99548.00
2022-12-18T19:19:06.733Z,99550.66
2022-12-18T19:21:34.689Z,99545.56
2022-12-18T19:24:02.679Z,99549.00
2022-12-18T19:26:29.704Z,99539.09
2022-12-18T19:29:07.070Z,99547.59
2022-12-18T19:31:36.496Z,99533.44
2022-12-18T19:34:06.716Z,99539.31
2022-12-18T19:36:35.197Z,99541.97
2022-12-18T19:39:07.085Z,99535.78
2022-12-18T19:41:33.989Z,99538.44
2022-12-18T19:44:08.267Z,99520.25
2022-12-18T19:46:34.922Z,99529.81
2022-12-18T19:49:01.480Z,99530.03
2022-12-18T19:51:29.674Z,99527.09
2022-12-18T19:53:59.404Z,99537.13
2022-12-18T19:56:31.037Z,99522.78
2022-12-18T19:58:57.951Z,99521.50
2022-12-18T20:01:25.995Z,99527.25
2022-12-18T20:03:55.273Z,99521.75
2022-12-18T20:06:31.424Z,99512.31
2022-12-18T20:09:04.569Z,99503.25
2022-12-18T20:11:32.653Z,99504.53
2022-12-18T20:13:59.231Z,99505.34
2022-12-18T20:16:25.857Z,99501.06
2022-12-18T20:18:53.243Z,99509.81
2022-12-18T20:21:19.893Z,99501.75
2022-12-18T20:23:46.367Z,99511.75
2022-12-18T20:26:13.182Z,99517.13
2022-12-18T20:28:40.744Z,99531.47
2022-12-18T20:31:10.504Z,99519.56
2022-12-18T20:33:40.450Z,99526.78
2022-12-18T20:36:12.386Z,99529.53
2022-12-18T20:38:39.660Z,99532.31
2022-12-18T20:41:09.949Z,99541.75
2022-12-18T20:43:36.787Z,99523.41
2022-12-18T20:46:05.947Z,99540.09
2022-12-18T20:48:33.509Z,99537.84
2022-12-18T20:51:06.221Z,99532.75
2022-12-18T20:53:33.987Z,99534.50
2022-12-18T20:56:02.203Z,99540.09
2022-12-18T20:58:28.777Z,99530.50
2022-12-18T21:01:06.355Z,99526.75
2022-12-18T21:03:33.530Z,99525.88
2022-12-18T21:06:00.039Z,99515.69
2022-12-18T21:08:26.518Z,99526.78
2022-12-18T21:10:53.356Z,99526.19
2022-12-18T21:13:22.495Z,99532.16
2022-12-18T21:15:48.988Z,99526.19
2022-12-18T21:18:15.415Z,99540.31
2022-12-18T21:20:42.202Z,99534.81
2022-12-18T21:23:16.314Z,99532.84
2022-12-18T21:25:44.419Z,99527.50
2022-12-18T21:28:12.310Z,99526.16
2022-12-18T21:30:38.915Z,99519.03
2022-12-18T21:33:05.494Z,99505.97
2022-12-18T21:35:32.171Z,99512.06
2022-12-18T21:37:58.860Z,99522.50
2022-12-18T21:40:25.358Z,99511.13
2022-12-18T21:43:30.321Z,99520.00
2022-12-18T21:45:56.791Z,99523.34
2022-12-18T21:48:25.134Z,99523.88
2022-12-18T21:50:51.657Z,99518.56
2022-12-18T21:53:18.097Z,99526.91
2022-12-18T21:55:44.566Z,99516.09
2022-12-18T21:58:11.012Z,99509.06
2022-12-18T22:00:37.477Z,99513.75
2022-12-18T22:03:18.703Z,99507.47
2022-12-18T22:05:45.929Z,99501.38
2022-12-18T22:08:15.007Z,99503.19
2022-12-18T22:10:41.722Z,99518.66
2022-12-18T22:13:08.298Z,99512.47
2022-12-18T22:15:34.805Z,99504.25
2022-12-18T22:18:01.337Z,99517.44
2022-12-18T22:20:30.106Z,99523.88
2022-12-18T22:22:56.964Z,99519.50
2022-12-18T22:25:23.443Z,99534.00
2022-12-18T22:28:08.394Z,99532.03
2022-12-18T22:30:35.491Z,99530.06
2022-12-18T22:33:02.475Z,99533.00
2022-12-18T22:35:28.978Z,99530.88
2022-12-18T22:37:55.438Z,99539.06
2022-12-18T22:40:27.057Z,99544.66
2022-12-18T22:42:54.514Z,99537.16
2022-12-18T22:45:21.131Z,99532.56
2022-12-18T22:47:47.785Z,99524.13
2022-12-18T22:50:14.702Z,99537.41
2022-12-18T22:52:41.437Z,99530.28
2022-12-18T22:55:08.521Z,99540.84
2022-12-18T22:57:35.243Z,99543.47
2022-12-18T23:00:03.697Z,99527.91
2022-12-18T23:02:30.320Z,99534.16
2022-12-18T23:04:56.887Z,99529.16
2022-12-18T23:07:23.414Z,99530.75
2022-12-18T23:09:51.385Z,99538.16
2022-12-18T23:12:27.399Z,99520.00
2022-12-18T23:14:54.158Z,99522.59
2022-12-18T23:17:20.637Z,99512.56
2022-12-18T23:19:49.229Z,99513.69
2022-12-18T23:22:16.935Z,99512.63
2022-12-18T23:24:43.407Z,99517.22
2022-12-18T23:27:11.690Z,99504.41
2022-12-18T23:29:39.609Z,99505.84
2022-12-18T23:32:06.167Z,99502.50
2022-12-18T23:34:32.695Z,99500.03
2022-12-18T23:36:59.220Z,99502.59
2022-12-18T23:39:29.673Z,99514.06
2022-12-18T23:42:00.395Z,99507.66
2022-12-18T23:44:27.594Z,99498.94
2022-12-18T23:46:54.504Z,99494.44
2022-12-18T23:49:21.084Z,99490.94
2022-12-18T23:51:47.774Z,99493.06
2022-12-18T23:54:14.276Z,99488.06
2022-12-18T23:56:40.919Z,99493.75
2022-12-18T23:59:07.415Z,99497.72
